sensor_id;sensor_type;location;lat;lon;timestamp;temperature;humidity
2603;DHT22;1311;47.966;7.958;2023-02-28T00:00:37;-0.50;56.90
2603;DHT22;1311;47.966;7.958;2023-02-28T00:03:04;-0.50;57.90
2603;DHT22;1311;47.966;7.958;2023-02-28T00:05:31;-0.50;59.10
2603;DHT22;1311;47.966;7.958;2023-02-28T00:07:58;-0.40;58.80
2603;DHT22;1311;47.966;7.958;2023-02-28T00:10:27;-0.40;60.20
2603;DHT22;1311;47.966;7.958;2023-02-28T00:12:59;-0.40;62.30
2603;DHT22;1311;47.966;7.958;2023-02-28T00:15:26;-0.40;64.00
2603;DHT22;1311;47.966;7.958;2023-02-28T00:17:53;-0.40;64.40
2603;DHT22;1311;47.966;7.958;2023-02-28T00:20:20;-0.40;65.90
2603;DHT22;1311;47.966;7.958;2023-02-28T00:22:48;-0.30;65.90
2603;DHT22;1311;47.966;7.958;2023-02-28T00:25:18;-0.30;66.80
2603;DHT22;1311;47.966;7.958;2023-02-28T00:27:45;-0.30;68.60
2603;DHT22;1311;47.966;7.958;2023-02-28T00:30:16;-0.30;68.70
2603;DHT22;1311;47.966;7.958;2023-02-28T00:32:42;-0.30;70.10
2603;DHT22;1311;47.966;7.958;2023-02-28T00:35:10;-0.30;72.50
2603;DHT22;1311;47.966;7.958;2023-02-28T00:37:37;-0.30;73.50
2603;DHT22;1311;47.966;7.958;2023-02-28T00:40:05;-0.30;75.40
2603;DHT22;1311;47.966;7.958;2023-02-28T00:42:32;-0.30;77.70
2603;DHT22;1311;47.966;7.958;2023-02-28T00:44:59;-0.30;78.20
2603;DHT22;1311;47.966;7.958;2023-02-28T00:47:27;-0.30;79.80
2603;DHT22;1311;47.966;7.958;2023-02-28T00:49:54;-0.20;81.70
2603;DHT22;1311;47.966;7.958;2023-02-28T00:52:21;-0.20;82.90
2603;DHT22;1311;47.966;7.958;2023-02-28T00:54:48;-0.20;84.80
2603;DHT22;1311;47.966;7.958;2023-02-28T00:57:14;-0.20;86.80
2603;DHT22;1311;47.966;7.958;2023-02-28T00:59:41;-0.20;88.40
2603;DHT22;1311;47.966;7.958;2023-02-28T01:02:08;-0.20;90.10
2603;DHT22;1311;47.966;7.958;2023-02-28T01:04:36;-0.20;90.60
2603;DHT22;1311;47.966;7.958;2023-02-28T01:07:03;-0.20;91.30
2603;DHT22;1311;47.966;7.958;2023-02-28T01:09:29;-0.20;91.90
2603;DHT22;1311;47.966;7.958;2023-02-28T01:11:56;-0.20;92.40
2603;DHT22;1311;47.966;7.958;2023-02-28T01:14:23;-0.20;92.90
2603;DHT22;1311;47.966;7.958;2023-02-28T01:16:50;-0.20;93.70
2603;DHT22;1311;47.966;7.958;2023-02-28T01:19:17;-0.20;94.60
2603;DHT22;1311;47.966;7.958;2023-02-28T01:21:45;-0.10;95.00
2603;DHT22;1311;47.966;7.958;2023-02-28T01:24:11;-0.20;95.10
2603;DHT22;1311;47.966;7.958;2023-02-28T01:26:38;-0.20;95.50
2603;DHT22;1311;47.966;7.958;2023-02-28T01:29:05;-0.20;95.90
2603;DHT22;1311;47.966;7.958;2023-02-28T01:31:32;-0.20;96.70
2603;DHT22;1311;47.966;7.958;2023-02-28T01:33:59;-0.10;98.60
2603;DHT22;1311;47.966;7.958;2023-02-28T01:36:26;-0.10;99.00
2603;DHT22;1311;47.966;7.958;2023-02-28T01:38:54;-0.10;98.80
2603;DHT22;1311;47.966;7.958;2023-02-28T01:41:23;-0.10;99.10
2603;DHT22;1311;47.966;7.958;2023-02-28T01:43:58;-0.10;99.40
2603;DHT22;1311;47.966;7.958;2023-02-28T01:46:29;-0.20;99.50
2603;DHT22;1311;47.966;7.958;2023-02-28T01:49:04;-0.20;99.90
2603;DHT22;1311;47.966;7.958;2023-02-28T01:51:35;-0.20;99.90
2603;DHT22;1311;47.966;7.958;2023-02-28T01:54:09;-0.20;99.90
2603;DHT22;1311;47.966;7.958;2023-02-28T01:56:42;-0.20;99.90
2603;DHT22;1311;47.966;7.958;2023-02-28T01:59:12;-0.20;99.90
2603;DHT22;1311;47.966;7.958;2023-02-28T02:01:39;-0.20;99.90
2603;DHT22;1311;47.966;7.958;2023-02-28T02:04:06;-0.20;99.90
2603;DHT22;1311;47.966;7.958;2023-02-28T02:06:36;-0.20;99.90
2603;DHT22;1311;47.966;7.958;2023-02-28T02:09:05;-0.20;99.90
2603;DHT22;1311;47.966;7.958;2023-02-28T02:11:32;-0.10;99.90
2603;DHT22;1311;47.966;7.958;2023-02-28T02:17:04;-0.10;99.90
2603;DHT22;1311;47.966;7.958;2023-02-28T02:22:58;-0.20;99.90
2603;DHT22;1311;47.966;7.958;2023-02-28T02:25:33;-0.20;99.90
2603;DHT22;1311;47.966;7.958;2023-02-28T02:28:25;-0.20;99.90
2603;DHT22;1311;47.966;7.958;2023-02-28T02:34:37;-0.20;99.90
2603;DHT22;1311;47.966;7.958;2023-02-28T02:37:19;-0.20;99.90
2603;DHT22;1311;47.966;7.958;2023-02-28T02:39:52;-0.10;99.90
2603;DHT22;1311;47.966;7.958;2023-02-28T02:42:24;-0.20;99.90
2603;DHT22;1311;47.966;7.958;2023-02-28T02:44:58;-0.20;99.90
2603;DHT22;1311;47.966;7.958;2023-02-28T02:47:28;-0.10;99.90
2603;DHT22;1311;47.966;7.958;2023-02-28T02:49:59;-0.10;99.90
2603;DHT22;1311;47.966;7.958;2023-02-28T02:52:33;0.00;99.90
2603;DHT22;1311;47.966;7.958;2023-02-28T02:55:02;0.00;99.90
2603;DHT22;1311;47.966;7.958;2023-02-28T02:57:32;0.00;99.90
2603;DHT22;1311;47.966;7.958;2023-02-28T03:00:02;0.00;99.90
2603;DHT22;1311;47.966;7.958;2023-02-28T03:02:31;-0.10;99.90
2603;DHT22;1311;47.966;7.958;2023-02-28T03:05:04;-0.20;99.90
2603;DHT22;1311;47.966;7.958;2023-02-28T03:07:32;-0.20;99.90
2603;DHT22;1311;47.966;7.958;2023-02-28T03:09:59;-0.20;99.90
2603;DHT22;1311;47.966;7.958;2023-02-28T03:12:32;-0.20;99.90
2603;DHT22;1311;47.966;7.958;2023-02-28T03:15:07;-0.10;99.90
2603;DHT22;1311;47.966;7.958;2023-02-28T03:17:53;-0.20;99.90
2603;DHT22;1311;47.966;7.958;2023-02-28T03:20:32;-0.20;99.90
2603;DHT22;1311;47.966;7.958;2023-02-28T03:23:10;-0.20;99.90
2603;DHT22;1311;47.966;7.958;2023-02-28T03:25:51;-0.20;99.90
2603;DHT22;1311;47.966;7.958;2023-02-28T03:28:25;-0.30;99.90
2603;DHT22;1311;47.966;7.958;2023-02-28T03:30:59;-0.20;99.90
2603;DHT22;1311;47.966;7.958;2023-02-28T03:33:28;-0.30;99.90
2603;DHT22;1311;47.966;7.958;2023-02-28T03:36:01;-0.20;99.90
2603;DHT22;1311;47.966;7.958;2023-02-28T03:38:33;-0.30;99.90
2603;DHT22;1311;47.966;7.958;2023-02-28T03:41:05;-0.40;99.90
2603;DHT22;1311;47.966;7.958;2023-02-28T03:43:40;-0.40;99.90
2603;DHT22;1311;47.966;7.958;2023-02-28T03:46:10;-0.40;99.90
2603;DHT22;1311;47.966;7.958;2023-02-28T03:48:42;-0.30;99.90
2603;DHT22;1311;47.966;7.958;2023-02-28T03:51:15;-0.30;99.90
2603;DHT22;1311;47.966;7.958;2023-02-28T03:53:46;-0.40;99.90
2603;DHT22;1311;47.966;7.958;2023-02-28T03:56:16;-0.40;99.90
2603;DHT22;1311;47.966;7.958;2023-02-28T03:58:49;-0.50;99.90
2603;DHT22;1311;47.966;7.958;2023-02-28T04:01:21;-0.50;99.90
2603;DHT22;1311;47.966;7.958;2023-02-28T04:03:49;-0.50;99.90
2603;DHT22;1311;47.966;7.958;2023-02-28T04:06:19;-0.50;99.90
2603;DHT22;1311;47.966;7.958;2023-02-28T04:08:47;-0.60;99.90
2603;DHT22;1311;47.966;7.958;2023-02-28T04:11:20;-0.60;99.90
2603;DHT22;1311;47.966;7.958;2023-02-28T04:13:47;-0.60;99.90
2603;DHT22;1311;47.966;7.958;2023-02-28T04:16:14;-0.60;99.90
2603;DHT22;1311;47.966;7.958;2023-02-28T04:18:41;-0.70;99.90
2603;DHT22;1311;47.966;7.958;2023-02-28T04:21:09;-0.60;99.90
2603;DHT22;1311;47.966;7.958;2023-02-28T04:23:38;-0.70;99.90
2603;DHT22;1311;47.966;7.958;2023-02-28T04:26:05;-0.60;99.90
2603;DHT22;1311;47.966;7.958;2023-02-28T04:28:32;-0.60;99.90
2603;DHT22;1311;47.966;7.958;2023-02-28T04:31:01;-0.60;99.90
2603;DHT22;1311;47.966;7.958;2023-02-28T04:33:28;-0.60;99.90
2603;DHT22;1311;47.966;7.958;2023-02-28T04:35:59;-0.60;99.90
2603;DHT22;1311;47.966;7.958;2023-02-28T04:38:28;-0.60;99.90
2603;DHT22;1311;47.966;7.958;2023-02-28T04:40:58;-0.60;99.90
2603;DHT22;1311;47.966;7.958;2023-02-28T04:43:27;-0.60;99.90
2603;DHT22;1311;47.966;7.958;2023-02-28T04:45:54;-0.60;99.90
2603;DHT22;1311;47.966;7.958;2023-02-28T04:48:22;-0.60;99.90
2603;DHT22;1311;47.966;7.958;2023-02-28T04:50:49;-0.60;99.90
2603;DHT22;1311;47.966;7.958;2023-02-28T04:53:15;-0.70;99.90
2603;DHT22;1311;47.966;7.958;2023-02-28T04:55:42;-0.60;99.90
2603;DHT22;1311;47.966;7.958;2023-02-28T04:58:11;-0.60;99.90
2603;DHT22;1311;47.966;7.958;2023-02-28T05:00:37;-0.60;99.90
2603;DHT22;1311;47.966;7.958;2023-02-28T05:03:04;-0.60;99.90
2603;DHT22;1311;47.966;7.958;2023-02-28T05:05:31;-0.60;99.90
2603;DHT22;1311;47.966;7.958;2023-02-28T05:07:58;-0.60;99.90
2603;DHT22;1311;47.966;7.958;2023-02-28T05:10:25;-0.60;99.90
2603;DHT22;1311;47.966;7.958;2023-02-28T05:12:52;-0.60;99.90
2603;DHT22;1311;47.966;7.958;2023-02-28T05:15:20;-0.50;99.90
2603;DHT22;1311;47.966;7.958;2023-02-28T05:17:46;-0.50;99.90
2603;DHT22;1311;47.966;7.958;2023-02-28T05:20:13;-0.40;99.90
2603;DHT22;1311;47.966;7.958;2023-02-28T05:22:40;-0.40;99.90
2603;DHT22;1311;47.966;7.958;2023-02-28T05:25:09;-0.40;99.90
2603;DHT22;1311;47.966;7.958;2023-02-28T05:27:37;-0.40;99.90
2603;DHT22;1311;47.966;7.958;2023-02-28T05:30:05;-0.40;99.90
2603;DHT22;1311;47.966;7.958;2023-02-28T05:32:37;-0.40;99.90
2603;DHT22;1311;47.966;7.958;2023-02-28T05:35:04;-0.40;99.90
2603;DHT22;1311;47.966;7.958;2023-02-28T05:37:31;-0.30;99.90
2603;DHT22;1311;47.966;7.958;2023-02-28T05:39:58;-0.30;99.90
2603;DHT22;1311;47.966;7.958;2023-02-28T05:42:25;-0.30;99.90
2603;DHT22;1311;47.966;7.958;2023-02-28T05:44:51;-0.40;99.90
2603;DHT22;1311;47.966;7.958;2023-02-28T05:47:18;-0.40;99.90
2603;DHT22;1311;47.966;7.958;2023-02-28T05:49:46;-0.40;99.90
2603;DHT22;1311;47.966;7.958;2023-02-28T05:52:13;-0.40;99.90
2603;DHT22;1311;47.966;7.958;2023-02-28T05:54:40;-0.50;99.90
2603;DHT22;1311;47.966;7.958;2023-02-28T05:57:07;-0.50;99.90
2603;DHT22;1311;47.966;7.958;2023-02-28T05:59:33;-0.50;99.90
2603;DHT22;1311;47.966;7.958;2023-02-28T06:02:00;-0.50;99.90
2603;DHT22;1311;47.966;7.958;2023-02-28T06:04:27;-0.50;99.90
2603;DHT22;1311;47.966;7.958;2023-02-28T06:06:55;-0.50;99.90
2603;DHT22;1311;47.966;7.958;2023-02-28T06:09:23;-0.60;99.90
2603;DHT22;1311;47.966;7.958;2023-02-28T06:11:50;-0.50;99.90
2603;DHT22;1311;47.966;7.958;2023-02-28T06:14:18;-0.60;99.90
2603;DHT22;1311;47.966;7.958;2023-02-28T06:16:46;-0.60;99.90
2603;DHT22;1311;47.966;7.958;2023-02-28T06:19:12;-0.50;99.90
2603;DHT22;1311;47.966;7.958;2023-02-28T06:21:40;-0.50;99.90
2603;DHT22;1311;47.966;7.958;2023-02-28T06:24:10;-0.50;99.90
2603;DHT22;1311;47.966;7.958;2023-02-28T06:26:36;-0.40;99.90
2603;DHT22;1311;47.966;7.958;2023-02-28T06:29:03;-0.40;99.90
2603;DHT22;1311;47.966;7.958;2023-02-28T06:31:30;-0.30;99.90
2603;DHT22;1311;47.966;7.958;2023-02-28T06:33:57;-0.30;99.90
2603;DHT22;1311;47.966;7.958;2023-02-28T06:36:24;-0.30;99.90
2603;DHT22;1311;47.966;7.958;2023-02-28T06:38:50;-0.30;99.90
2603;DHT22;1311;47.966;7.958;2023-02-28T06:41:22;-0.30;99.90
2603;DHT22;1311;47.966;7.958;2023-02-28T06:43:49;-0.30;99.90
2603;DHT22;1311;47.966;7.958;2023-02-28T06:46:16;-0.30;99.90
2603;DHT22;1311;47.966;7.958;2023-02-28T06:48:43;-0.30;99.90
2603;DHT22;1311;47.966;7.958;2023-02-28T06:51:13;-0.20;99.90
2603;DHT22;1311;47.966;7.958;2023-02-28T06:53:40;-0.10;99.90
2603;DHT22;1311;47.966;7.958;2023-02-28T06:56:09;-0.10;99.90
2603;DHT22;1311;47.966;7.958;2023-02-28T06:58:37;-0.10;99.90
2603;DHT22;1311;47.966;7.958;2023-02-28T07:01:06;0.00;99.90
2603;DHT22;1311;47.966;7.958;2023-02-28T07:03:35;0.00;99.90
2603;DHT22;1311;47.966;7.958;2023-02-28T07:06:02;0.00;99.90
2603;DHT22;1311;47.966;7.958;2023-02-28T07:08:29;0.00;99.90
2603;DHT22;1311;47.966;7.958;2023-02-28T07:10:57;0.00;99.90
2603;DHT22;1311;47.966;7.958;2023-02-28T07:13:25;0.00;99.90
2603;DHT22;1311;47.966;7.958;2023-02-28T07:15:57;0.10;99.90
2603;DHT22;1311;47.966;7.958;2023-02-28T07:18:24;0.10;99.90
2603;DHT22;1311;47.966;7.958;2023-02-28T07:20:51;0.20;99.90
2603;DHT22;1311;47.966;7.958;2023-02-28T07:23:19;0.20;99.90
2603;DHT22;1311;47.966;7.958;2023-02-28T07:25:46;0.20;99.90
2603;DHT22;1311;47.966;7.958;2023-02-28T07:28:13;0.30;99.90
2603;DHT22;1311;47.966;7.958;2023-02-28T07:30:40;0.30;99.90
2603;DHT22;1311;47.966;7.958;2023-02-28T07:33:09;0.40;99.90
2603;DHT22;1311;47.966;7.958;2023-02-28T07:35:35;0.40;99.90
2603;DHT22;1311;47.966;7.958;2023-02-28T07:38:03;0.50;99.90
2603;DHT22;1311;47.966;7.958;2023-02-28T07:40:29;0.50;99.90
2603;DHT22;1311;47.966;7.958;2023-02-28T07:42:58;0.50;99.90
2603;DHT22;1311;47.966;7.958;2023-02-28T07:45:25;0.60;99.90
2603;DHT22;1311;47.966;7.958;2023-02-28T07:47:52;0.70;99.90
2603;DHT22;1311;47.966;7.958;2023-02-28T07:50:21;0.80;99.90
2603;DHT22;1311;47.966;7.958;2023-02-28T07:52:47;0.70;99.90
2603;DHT22;1311;47.966;7.958;2023-02-28T07:55:14;0.70;99.90
2603;DHT22;1311;47.966;7.958;2023-02-28T07:57:42;0.70;99.90
2603;DHT22;1311;47.966;7.958;2023-02-28T08:00:10;0.70;99.90
2603;DHT22;1311;47.966;7.958;2023-02-28T08:02:38;0.90;99.90
2603;DHT22;1311;47.966;7.958;2023-02-28T08:05:05;0.80;99.90
2603;DHT22;1311;47.966;7.958;2023-02-28T08:07:34;0.80;99.90
2603;DHT22;1311;47.966;7.958;2023-02-28T08:10:01;0.90;99.90
2603;DHT22;1311;47.966;7.958;2023-02-28T08:12:27;1.10;99.90
2603;DHT22;1311;47.966;7.958;2023-02-28T08:14:54;1.10;99.90
2603;DHT22;1311;47.966;7.958;2023-02-28T08:17:21;1.00;99.90
2603;DHT22;1311;47.966;7.958;2023-02-28T08:19:48;1.00;99.90
2603;DHT22;1311;47.966;7.958;2023-02-28T08:22:14;1.10;99.90
2603;DHT22;1311;47.966;7.958;2023-02-28T08:24:43;1.20;99.90
2603;DHT22;1311;47.966;7.958;2023-02-28T08:27:09;1.10;99.90
2603;DHT22;1311;47.966;7.958;2023-02-28T08:29:37;1.10;99.90
2603;DHT22;1311;47.966;7.958;2023-02-28T08:32:04;0.90;99.90
2603;DHT22;1311;47.966;7.958;2023-02-28T08:34:31;1.10;99.90
2603;DHT22;1311;47.966;7.958;2023-02-28T08:36:58;1.10;99.90
2603;DHT22;1311;47.966;7.958;2023-02-28T08:39:24;1.10;99.90
2603;DHT22;1311;47.966;7.958;2023-02-28T08:41:52;1.30;99.90
2603;DHT22;1311;47.966;7.958;2023-02-28T08:44:19;1.30;99.90
2603;DHT22;1311;47.966;7.958;2023-02-28T08:46:48;1.40;99.90
2603;DHT22;1311;47.966;7.958;2023-02-28T08:49:15;1.30;99.90
2603;DHT22;1311;47.966;7.958;2023-02-28T08:51:41;1.00;99.90
2603;DHT22;1311;47.966;7.958;2023-02-28T08:54:09;1.00;99.90
2603;DHT22;1311;47.966;7.958;2023-02-28T08:56:38;1.10;99.90
2603;DHT22;1311;47.966;7.958;2023-02-28T08:59:06;1.20;99.90
2603;DHT22;1311;47.966;7.958;2023-02-28T09:01:33;1.30;99.90
2603;DHT22;1311;47.966;7.958;2023-02-28T09:03:59;1.20;99.90
2603;DHT22;1311;47.966;7.958;2023-02-28T09:06:28;1.20;99.90
2603;DHT22;1311;47.966;7.958;2023-02-28T09:08:56;1.30;99.90
2603;DHT22;1311;47.966;7.958;2023-02-28T09:11:24;1.20;99.90
2603;DHT22;1311;47.966;7.958;2023-02-28T09:13:51;1.30;99.90
2603;DHT22;1311;47.966;7.958;2023-02-28T09:16:19;1.50;99.90
2603;DHT22;1311;47.966;7.958;2023-02-28T09:18:46;1.70;99.90
2603;DHT22;1311;47.966;7.958;2023-02-28T09:21:15;1.70;99.90
2603;DHT22;1311;47.966;7.958;2023-02-28T09:23:42;1.70;99.90
2603;DHT22;1311;47.966;7.958;2023-02-28T09:26:13;1.90;99.90
2603;DHT22;1311;47.966;7.958;2023-02-28T09:28:40;1.80;99.90
2603;DHT22;1311;47.966;7.958;2023-02-28T09:31:12;1.70;99.90
2603;DHT22;1311;47.966;7.958;2023-02-28T09:33:40;1.60;99.90
2603;DHT22;1311;47.966;7.958;2023-02-28T09:36:07;1.60;99.90
2603;DHT22;1311;47.966;7.958;2023-02-28T09:38:34;1.70;99.90
2603;DHT22;1311;47.966;7.958;2023-02-28T09:41:03;1.80;99.90
2603;DHT22;1311;47.966;7.958;2023-02-28T09:43:34;1.80;99.90
2603;DHT22;1311;47.966;7.958;2023-02-28T09:46:07;1.80;99.90
2603;DHT22;1311;47.966;7.958;2023-02-28T09:48:41;1.80;99.90
2603;DHT22;1311;47.966;7.958;2023-02-28T09:51:16;2.10;99.90
2603;DHT22;1311;47.966;7.958;2023-02-28T09:53:48;2.10;99.90
2603;DHT22;1311;47.966;7.958;2023-02-28T09:56:20;2.00;99.90
2603;DHT22;1311;47.966;7.958;2023-02-28T09:58:55;2.00;99.90
2603;DHT22;1311;47.966;7.958;2023-02-28T10:01:27;2.20;99.90
2603;DHT22;1311;47.966;7.958;2023-02-28T10:04:00;1.90;99.90
2603;DHT22;1311;47.966;7.958;2023-02-28T10:06:30;1.70;99.90
2603;DHT22;1311;47.966;7.958;2023-02-28T10:09:02;2.00;99.90
2603;DHT22;1311;47.966;7.958;2023-02-28T10:11:32;2.00;99.90
2603;DHT22;1311;47.966;7.958;2023-02-28T10:14:02;1.70;99.90
2603;DHT22;1311;47.966;7.958;2023-02-28T10:16:34;2.20;99.90
2603;DHT22;1311;47.966;7.958;2023-02-28T10:19:06;2.20;99.90
2603;DHT22;1311;47.966;7.958;2023-02-28T10:21:41;2.40;99.90
2603;DHT22;1311;47.966;7.958;2023-02-28T10:24:19;2.40;99.90
2603;DHT22;1311;47.966;7.958;2023-02-28T10:26:47;2.50;99.90
2603;DHT22;1311;47.966;7.958;2023-02-28T10:29:15;2.70;99.90
2603;DHT22;1311;47.966;7.958;2023-02-28T10:31:42;2.80;99.90
2603;DHT22;1311;47.966;7.958;2023-02-28T10:34:12;2.90;99.90
2603;DHT22;1311;47.966;7.958;2023-02-28T10:36:39;3.00;99.90
2603;DHT22;1311;47.966;7.958;2023-02-28T10:39:36;3.00;99.90
2603;DHT22;1311;47.966;7.958;2023-02-28T10:42:25;2.80;99.90
2603;DHT22;1311;47.966;7.958;2023-02-28T10:45:06;2.50;99.90
2603;DHT22;1311;47.966;7.958;2023-02-28T10:47:34;2.70;99.90
2603;DHT22;1311;47.966;7.958;2023-02-28T10:50:05;2.80;99.90
2603;DHT22;1311;47.966;7.958;2023-02-28T10:52:35;2.90;99.90
2603;DHT22;1311;47.966;7.958;2023-02-28T10:55:21;2.90;99.90
2603;DHT22;1311;47.966;7.958;2023-02-28T10:57:49;3.10;99.90
2603;DHT22;1311;47.966;7.958;2023-02-28T11:00:18;3.20;99.90
2603;DHT22;1311;47.966;7.958;2023-02-28T11:02:45;3.00;99.90
2603;DHT22;1311;47.966;7.958;2023-02-28T11:05:27;3.00;99.90
2603;DHT22;1311;47.966;7.958;2023-02-28T11:07:57;3.30;99.90
2603;DHT22;1311;47.966;7.958;2023-02-28T11:10:29;3.00;99.90
2603;DHT22;1311;47.966;7.958;2023-02-28T11:12:58;2.80;98.20
2603;DHT22;1311;47.966;7.958;2023-02-28T11:15:27;2.80;98.50
2603;DHT22;1311;47.966;7.958;2023-02-28T11:17:57;2.90;98.70
2603;DHT22;1311;47.966;7.958;2023-02-28T11:20:28;3.10;99.20
2603;DHT22;1311;47.966;7.958;2023-02-28T11:22:56;3.30;99.30
2603;DHT22;1311;47.966;7.958;2023-02-28T11:25:25;3.20;95.40
2603;DHT22;1311;47.966;7.958;2023-02-28T11:27:56;3.30;93.40
2603;DHT22;1311;47.966;7.958;2023-02-28T11:30:25;3.10;92.50
2603;DHT22;1311;47.966;7.958;2023-02-28T11:32:55;3.40;93.70
2603;DHT22;1311;47.966;7.958;2023-02-28T11:35:28;3.60;94.00
2603;DHT22;1311;47.966;7.958;2023-02-28T11:37:57;3.80;91.80
2603;DHT22;1311;47.966;7.958;2023-02-28T11:40:30;4.00;90.30
2603;DHT22;1311;47.966;7.958;2023-02-28T11:43:05;4.20;86.80
2603;DHT22;1311;47.966;7.958;2023-02-28T11:45:58;4.00;79.00
2603;DHT22;1311;47.966;7.958;2023-02-28T11:48:33;4.10;76.60
2603;DHT22;1311;47.966;7.958;2023-02-28T11:51:13;3.90;65.10
2603;DHT22;1311;47.966;7.958;2023-02-28T11:54:01;4.10;63.90
2603;DHT22;1311;47.966;7.958;2023-02-28T11:56:36;3.90;56.10
2603;DHT22;1311;47.966;7.958;2023-02-28T11:59:25;4.30;59.10
2603;DHT22;1311;47.966;7.958;2023-02-28T12:02:23;4.30;55.30
2603;DHT22;1311;47.966;7.958;2023-02-28T12:05:01;4.00;49.10
2603;DHT22;1311;47.966;7.958;2023-02-28T12:07:43;3.90;49.00
2603;DHT22;1311;47.966;7.958;2023-02-28T12:10:21;4.20;53.60
2603;DHT22;1311;47.966;7.958;2023-02-28T12:13:01;4.00;44.70
2603;DHT22;1311;47.966;7.958;2023-02-28T12:15:42;4.30;46.40
2603;DHT22;1311;47.966;7.958;2023-02-28T12:21:11;4.90;41.50
2603;DHT22;1311;47.966;7.958;2023-02-28T12:26:43;5.40;30.00
2603;DHT22;1311;47.966;7.958;2023-02-28T12:29:16;5.50;23.00
2603;DHT22;1311;47.966;7.958;2023-02-28T12:31:49;5.50;13.50
2603;DHT22;1311;47.966;7.958;2023-02-28T12:34:20;5.90;11.10
2603;DHT22;1311;47.966;7.958;2023-02-28T12:36:50;5.90;1.00
2603;DHT22;1311;47.966;7.958;2023-02-28T12:39:25;5.90;1.00
2603;DHT22;1311;47.966;7.958;2023-02-28T12:41:55;6.00;1.00
2603;DHT22;1311;47.966;7.958;2023-02-28T12:44:28;5.60;1.00
2603;DHT22;1311;47.966;7.958;2023-02-28T12:47:00;5.80;1.00
2603;DHT22;1311;47.966;7.958;2023-02-28T12:49:33;5.30;1.00
2603;DHT22;1311;47.966;7.958;2023-02-28T12:52:01;5.20;1.00
2603;DHT22;1311;47.966;7.958;2023-02-28T12:54:37;5.30;1.00
2603;DHT22;1311;47.966;7.958;2023-02-28T12:57:11;5.60;1.00
2603;DHT22;1311;47.966;7.958;2023-02-28T12:59:42;6.00;1.00
2603;DHT22;1311;47.966;7.958;2023-02-28T13:02:41;6.10;1.00
2603;DHT22;1311;47.966;7.958;2023-02-28T13:11:00;7.10;1.00
2603;DHT22;1311;47.966;7.958;2023-02-28T13:13:28;7.10;1.00
2603;DHT22;1311;47.966;7.958;2023-02-28T13:16:02;7.20;1.00
2603;DHT22;1311;47.966;7.958;2023-02-28T13:18:35;7.40;1.00
2603;DHT22;1311;47.966;7.958;2023-02-28T13:21:06;7.30;1.00
2603;DHT22;1311;47.966;7.958;2023-02-28T13:23:40;7.40;1.00
2603;DHT22;1311;47.966;7.958;2023-02-28T13:26:08;6.70;99.90
2603;DHT22;1311;47.966;7.958;2023-02-28T13:28:58;7.20;99.90
2603;DHT22;1311;47.966;7.958;2023-02-28T13:31:25;6.90;99.90
2603;DHT22;1311;47.966;7.958;2023-02-28T13:34:13;6.70;48.60
2603;DHT22;1311;47.966;7.958;2023-02-28T13:36:41;5.90;1.00
2603;DHT22;1311;47.966;7.958;2023-02-28T13:42:34;6.90;99.90
2603;DHT22;1311;47.966;7.958;2023-02-28T13:45:26;7.00;99.90
2603;DHT22;1311;47.966;7.958;2023-02-28T13:47:54;6.80;1.00
2603;DHT22;1311;47.966;7.958;2023-02-28T13:50:27;6.40;1.00
2603;DHT22;1311;47.966;7.958;2023-02-28T13:56:10;5.90;1.00
2603;DHT22;1311;47.966;7.958;2023-02-28T13:58:54;6.10;1.00
2603;DHT22;1311;47.966;7.958;2023-02-28T14:01:42;6.40;1.20
2603;DHT22;1311;47.966;7.958;2023-02-28T14:04:30;5.90;1.00
2603;DHT22;1311;47.966;7.958;2023-02-28T14:07:04;6.00;91.10
2603;DHT22;1311;47.966;7.958;2023-02-28T14:09:33;6.40;99.90
2603;DHT22;1311;47.966;7.958;2023-02-28T14:15:03;6.20;85.70
2603;DHT22;1311;47.966;7.958;2023-02-28T14:17:32;6.30;95.00
2603;DHT22;1311;47.966;7.958;2023-02-28T14:19:59;6.50;99.90
2603;DHT22;1311;47.966;7.958;2023-02-28T14:22:42;6.40;1.00
2603;DHT22;1311;47.966;7.958;2023-02-28T14:25:21;6.30;1.00
2603;DHT22;1311;47.966;7.958;2023-02-28T14:27:55;6.20;1.00
2603;DHT22;1311;47.966;7.958;2023-02-28T14:30:56;6.30;83.00
2603;DHT22;1311;47.966;7.958;2023-02-28T14:33:31;6.30;99.90
2603;DHT22;1311;47.966;7.958;2023-02-28T14:36:06;6.00;2.40
2603;DHT22;1311;47.966;7.958;2023-02-28T14:38:40;5.60;1.00
2603;DHT22;1311;47.966;7.958;2023-02-28T14:41:21;5.70;92.50
2603;DHT22;1311;47.966;7.958;2023-02-28T14:43:51;5.70;99.90
2603;DHT22;1311;47.966;7.958;2023-02-28T14:46:20;5.40;99.90
2603;DHT22;1311;47.966;7.958;2023-02-28T14:48:48;5.30;99.90
2603;DHT22;1311;47.966;7.958;2023-02-28T14:51:19;5.00;99.90
2603;DHT22;1311;47.966;7.958;2023-02-28T14:53:50;5.20;99.90
2603;DHT22;1311;47.966;7.958;2023-02-28T14:56:23;5.10;1.00
2603;DHT22;1311;47.966;7.958;2023-02-28T14:58:52;5.10;1.00
2603;DHT22;1311;47.966;7.958;2023-02-28T15:01:22;4.80;1.00
2603;DHT22;1311;47.966;7.958;2023-02-28T15:03:58;4.70;1.00
2603;DHT22;1311;47.966;7.958;2023-02-28T15:06:26;4.70;1.00
2603;DHT22;1311;47.966;7.958;2023-02-28T15:09:15;4.50;1.00
2603;DHT22;1311;47.966;7.958;2023-02-28T15:11:46;4.50;1.00
2603;DHT22;1311;47.966;7.958;2023-02-28T15:14:17;4.30;1.00
2603;DHT22;1311;47.966;7.958;2023-02-28T15:16:51;4.40;1.00
2603;DHT22;1311;47.966;7.958;2023-02-28T15:19:21;4.40;1.00
2603;DHT22;1311;47.966;7.958;2023-02-28T15:21:53;4.30;1.00
2603;DHT22;1311;47.966;7.958;2023-02-28T15:24:35;4.10;1.00
2603;DHT22;1311;47.966;7.958;2023-02-28T15:27:05;3.90;1.00
2603;DHT22;1311;47.966;7.958;2023-02-28T15:29:41;3.60;1.00
2603;DHT22;1311;47.966;7.958;2023-02-28T15:32:23;3.50;1.00
2603;DHT22;1311;47.966;7.958;2023-02-28T15:34:51;3.60;3.20
2603;DHT22;1311;47.966;7.958;2023-02-28T15:37:29;3.60;12.30
2603;DHT22;1311;47.966;7.958;2023-02-28T15:39:57;3.70;19.70
2603;DHT22;1311;47.966;7.958;2023-02-28T15:42:29;3.70;21.90
2603;DHT22;1311;47.966;7.958;2023-02-28T15:44:57;3.60;23.20
2603;DHT22;1311;47.966;7.958;2023-02-28T15:47:29;3.50;26.50
2603;DHT22;1311;47.966;7.958;2023-02-28T15:49:58;3.60;31.30
2603;DHT22;1311;47.966;7.958;2023-02-28T15:52:29;3.70;36.40
2603;DHT22;1311;47.966;7.958;2023-02-28T15:55:08;3.60;38.80
2603;DHT22;1311;47.966;7.958;2023-02-28T15:57:39;3.60;44.00
2603;DHT22;1311;47.966;7.958;2023-02-28T16:00:11;3.50;47.20
2603;DHT22;1311;47.966;7.958;2023-02-28T16:02:55;3.50;49.20
2603;DHT22;1311;47.966;7.958;2023-02-28T16:05:24;3.50;51.30
2603;DHT22;1311;47.966;7.958;2023-02-28T16:07:56;3.50;50.30
2603;DHT22;1311;47.966;7.958;2023-02-28T16:10:26;3.40;51.10
2603;DHT22;1311;47.966;7.958;2023-02-28T16:12:54;3.40;52.80
2603;DHT22;1311;47.966;7.958;2023-02-28T16:15:23;3.40;53.90
2603;DHT22;1311;47.966;7.958;2023-02-28T16:17:53;3.30;55.40
2603;DHT22;1311;47.966;7.958;2023-02-28T16:20:22;3.30;58.20
2603;DHT22;1311;47.966;7.958;2023-02-28T16:22:49;3.30;59.70
2603;DHT22;1311;47.966;7.958;2023-02-28T16:25:18;3.20;62.60
2603;DHT22;1311;47.966;7.958;2023-02-28T16:27:47;3.30;66.10
2603;DHT22;1311;47.966;7.958;2023-02-28T16:30:19;3.20;69.50
2603;DHT22;1311;47.966;7.958;2023-02-28T16:32:47;3.20;90.00
2603;DHT22;1311;47.966;7.958;2023-02-28T16:35:15;3.10;92.00
2603;DHT22;1311;47.966;7.958;2023-02-28T16:37:43;3.00;92.90
2603;DHT22;1311;47.966;7.958;2023-02-28T16:40:14;2.80;93.90
2603;DHT22;1311;47.966;7.958;2023-02-28T16:42:42;2.70;94.50
2603;DHT22;1311;47.966;7.958;2023-02-28T16:45:21;2.60;95.90
2603;DHT22;1311;47.966;7.958;2023-02-28T16:47:49;2.50;98.70
2603;DHT22;1311;47.966;7.958;2023-02-28T16:50:20;2.40;99.90
2603;DHT22;1311;47.966;7.958;2023-02-28T16:52:48;2.40;99.90
2603;DHT22;1311;47.966;7.958;2023-02-28T16:55:18;2.30;99.90
2603;DHT22;1311;47.966;7.958;2023-02-28T16:57:49;2.20;99.90
2603;DHT22;1311;47.966;7.958;2023-02-28T17:00:18;2.10;99.90
2603;DHT22;1311;47.966;7.958;2023-02-28T17:02:45;2.10;99.90
2603;DHT22;1311;47.966;7.958;2023-02-28T17:05:12;2.00;99.90